createdAt,value
2022-12-18T00:02:48.993Z,16.50
2022-12-18T00:05:51.903Z,21.55
2022-12-18T00:08:57.271Z,20.65
2022-12-18T00:11:59.133Z,18.48
2022-12-18T00:15:01.118Z,18.42
2022-12-18T00:18:02.803Z,17.38
2022-12-18T00:21:09.258Z,21.30
2022-12-18T00:24:12.169Z,17.10
2022-12-18T00:27:13.767Z,18.15
2022-12-18T00:30:15.870Z,16.95
2022-12-18T00:33:17.528Z,20.40
2022-12-18T00:36:22.777Z,18.17
2022-12-18T00:39:27.234Z,18.73
2022-12-18T00:42:47.871Z,19.15
2022-12-18T00:45:49.869Z,15.63
2022-12-18T00:48:51.681Z,15.23
2022-12-18T00:51:59.142Z,19.20
2022-12-18T00:55:05.957Z,15.57
2022-12-18T00:58:09.215Z,16.55
2022-12-18T01:01:13.871Z,18.00
2022-12-18T01:04:15.962Z,15.82
2022-12-18T01:07:20.650Z,14.38
2022-12-18T01:10:22.388Z,17.23
2022-12-18T01:13:24.209Z,19.05
2022-12-18T01:16:25.929Z,18.27
2022-12-18T01:19:27.840Z,14.98
2022-12-18T01:22:30.178Z,15.63
2022-12-18T01:25:31.963Z,17.42
2022-12-18T01:28:33.753Z,15.07
2022-12-18T01:31:35.672Z,15.93
2022-12-18T01:34:38.699Z,17.05
2022-12-18T01:37:40.627Z,22.30
2022-12-18T01:40:42.406Z,15.00
2022-12-18T01:43:59.426Z,17.40
2022-12-18T01:47:01.576Z,16.75
2022-12-18T01:50:10.323Z,13.40
2022-12-18T01:53:20.041Z,21.83
2022-12-18T01:56:23.281Z,15.48
2022-12-18T01:59:25.235Z,16.65
2022-12-18T02:02:31.481Z,15.32
2022-12-18T02:05:50.173Z,14.63
2022-12-18T02:09:03.767Z,18.90
2022-12-18T02:12:54.041Z,17.73
2022-12-18T02:16:14.784Z,17.30
2022-12-18T02:19:54.106Z,17.97
2022-12-18T02:23:20.687Z,16.30
2022-12-18T02:26:38.991Z,13.27
2022-12-18T02:29:57.661Z,14.90
2022-12-18T02:33:03.014Z,17.92
2022-12-18T02:36:06.956Z,18.15
2022-12-18T02:39:12.138Z,17.20
2022-12-18T02:42:20.295Z,17.08
2022-12-18T02:45:23.247Z,18.42
2022-12-18T02:48:36.324Z,19.05
2022-12-18T02:51:46.779Z,17.38
2022-12-18T02:54:53.539Z,18.77
2022-12-18T02:57:59.455Z,17.20
2022-12-18T03:01:44.309Z,16.33
2022-12-18T03:05:09.966Z,14.90
2022-12-18T03:08:20.086Z,17.92
2022-12-18T03:11:43.680Z,13.38
2022-12-18T03:14:50.431Z,18.63
2022-12-18T03:18:22.694Z,17.45
2022-12-18T03:21:49.999Z,16.67
2022-12-18T03:24:54.994Z,17.48
2022-12-18T03:27:59.879Z,19.65
2022-12-18T03:31:05.360Z,15.70
2022-12-18T03:34:12.612Z,17.52
2022-12-18T03:37:18.932Z,17.20
2022-12-18T03:40:30.963Z,18.40
2022-12-18T03:44:00.206Z,16.65
2022-12-18T03:47:17.095Z,16.40
2022-12-18T03:50:27.166Z,14.23
2022-12-18T03:53:47.058Z,15.73
2022-12-18T03:56:57.054Z,13.95
2022-12-18T04:00:04.574Z,13.30
2022-12-18T04:03:17.877Z,11.23
2022-12-18T04:06:23.382Z,16.33
2022-12-18T04:09:27.161Z,14.68
2022-12-18T04:12:30.811Z,17.40
2022-12-18T04:15:36.417Z,14.07
2022-12-18T04:18:40.211Z,17.45
2022-12-18T04:21:43.705Z,15.40
2022-12-18T04:24:47.368Z,12.98
2022-12-18T04:27:57.400Z,12.43
2022-12-18T04:30:59.182Z,14.95
2022-12-18T04:34:01.037Z,14.75
2022-12-18T04:37:05.354Z,15.77
2022-12-18T04:40:11.296Z,14.20
2022-12-18T04:43:17.629Z,14.68
2022-12-18T04:46:19.529Z,15.80
2022-12-18T04:49:21.372Z,15.88
2022-12-18T04:52:28.790Z,12.70
2022-12-18T04:55:31.361Z,13.60
2022-12-18T04:58:33.384Z,17.13
2022-12-18T05:01:35.565Z,11.90
2022-12-18T05:04:38.620Z,16.83
2022-12-18T05:07:40.326Z,14.43
2022-12-18T05:10:43.227Z,16.25
2022-12-18T05:13:45.738Z,13.02
2022-12-18T05:16:47.573Z,13.90
2022-12-18T05:19:49.224Z,13.45
2022-12-18T05:22:51.708Z,14.73
2022-12-18T05:25:54.504Z,11.50
2022-12-18T05:28:56.342Z,11.90
2022-12-18T05:31:57.994Z,14.32
2022-12-18T05:34:59.812Z,15.55
2022-12-18T05:38:01.599Z,13.07
2022-12-18T05:41:04.191Z,14.38
2022-12-18T05:44:06.140Z,15.43
2022-12-18T05:47:09.116Z,13.05
2022-12-18T05:50:10.921Z,15.35
2022-12-18T05:53:14.257Z,14.13
2022-12-18T05:56:19.432Z,12.77
2022-12-18T05:59:21.375Z,13.65
2022-12-18T06:02:23.472Z,12.85
2022-12-18T06:05:25.371Z,12.02
2022-12-18T06:08:27.316Z,14.07
2022-12-18T06:11:28.940Z,12.27
2022-12-18T06:14:30.915Z,11.52
2022-12-18T06:17:33.851Z,15.18
2022-12-18T06:20:37.676Z,13.57
2022-12-18T06:23:39.884Z,17.25
2022-12-18T06:26:42.290Z,11.65
2022-12-18T06:29:48.160Z,15.18
2022-12-18T06:32:56.368Z,11.65
2022-12-18T06:36:06.719Z,12.73
2022-12-18T06:39:08.811Z,13.70
2022-12-18T06:42:11.106Z,12.20
2022-12-18T06:45:12.728Z,15.48
2022-12-18T06:48:14.521Z,11.68
2022-12-18T06:51:25.492Z,14.00
2022-12-18T06:57:28.818Z,16.23
2022-12-18T07:00:30.586Z,11.05
2022-12-18T07:03:32.699Z,12.65
2022-12-18T07:06:34.448Z,14.50
2022-12-18T07:09:36.465Z,15.75
2022-12-18T07:12:38.190Z,13.73
2022-12-18T07:15:39.747Z,11.63
2022-12-18T07:18:41.628Z,16.75
2022-12-18T07:21:43.554Z,15.77
2022-12-18T07:24:45.413Z,11.25
2022-12-18T07:27:47.043Z,12.70
2022-12-18T07:30:48.786Z,12.38
2022-12-18T07:33:51.473Z,13.65
2022-12-18T07:36:53.083Z,13.45
2022-12-18T07:39:54.715Z,13.90
2022-12-18T07:42:56.460Z,12.57
2022-12-18T07:45:58.110Z,11.90
2022-12-18T07:48:59.916Z,12.48
2022-12-18T07:52:02.666Z,16.95
2022-12-18T07:55:05.048Z,14.85
2022-12-18T07:58:07.097Z,14.88
2022-12-18T08:01:11.793Z,12.73
2022-12-18T08:04:13.486Z,14.95
2022-12-18T08:07:15.487Z,12.82
2022-12-18T08:10:18.001Z,13.57
2022-12-18T08:13:19.608Z,14.30
2022-12-18T08:16:22.826Z,14.23
2022-12-18T08:19:24.479Z,13.13
2022-12-18T08:22:26.289Z,14.18
2022-12-18T08:25:28.162Z,14.10
2022-12-18T08:28:29.895Z,13.95
2022-12-18T08:31:32.322Z,15.15
2022-12-18T08:34:34.306Z,15.85
2022-12-18T08:37:36.025Z,12.65
2022-12-18T08:40:40.308Z,12.15
2022-12-18T08:44:00.966Z,13.10
2022-12-18T08:47:03.293Z,17.23
2022-12-18T08:50:05.222Z,15.43
2022-12-18T08:53:07.255Z,11.43
2022-12-18T08:56:09.074Z,16.75
2022-12-18T08:59:18.787Z,12.65
2022-12-18T09:02:21.438Z,14.27
2022-12-18T09:05:23.508Z,11.40
2022-12-18T09:08:25.554Z,12.48
2022-12-18T09:11:28.889Z,12.10
2022-12-18T09:14:31.216Z,18.08
2022-12-18T09:17:32.830Z,17.90
2022-12-18T09:20:34.606Z,14.82
2022-12-18T09:23:36.318Z,16.67
2022-12-18T09:26:38.683Z,14.57
2022-12-18T09:29:41.624Z,18.92
2022-12-18T09:32:43.259Z,13.48
2022-12-18T09:35:46.424Z,10.88
2022-12-18T09:38:48.148Z,13.05
2022-12-18T09:41:55.804Z,8.27
2022-12-18T09:44:59.491Z,10.88
2022-12-18T09:48:01.501Z,10.18
2022-12-18T09:51:15.917Z,9.98
2022-12-18T09:54:28.163Z,8.70
2022-12-18T09:57:34.611Z,9.40
2022-12-18T10:00:36.832Z,8.85
2022-12-18T10:03:38.699Z,8.85
2022-12-18T10:06:46.730Z,7.68
2022-12-18T10:10:23.906Z,10.98
2022-12-18T10:13:52.911Z,7.63
2022-12-18T10:17:03.686Z,8.70
2022-12-18T10:20:24.433Z,5.15
2022-12-18T10:23:26.222Z,9.35
2022-12-18T10:26:27.792Z,7.55
2022-12-18T10:29:29.786Z,7.70
2022-12-18T10:32:31.819Z,8.57
2022-12-18T10:35:34.046Z,6.65
2022-12-18T10:38:36.012Z,7.90
2022-12-18T10:41:38.764Z,8.13
2022-12-18T10:44:40.482Z,7.25
2022-12-18T10:47:49.567Z,11.02
2022-12-18T10:54:25.464Z,9.60
2022-12-18T10:57:27.172Z,6.93
2022-12-18T11:00:31.319Z,6.55
2022-12-18T11:04:06.744Z,8.75
2022-12-18T11:07:09.497Z,7.93
2022-12-18T11:10:18.587Z,6.88
2022-12-18T11:13:23.789Z,6.20
2022-12-18T11:16:25.979Z,6.60
2022-12-18T11:19:41.597Z,7.85
2022-12-18T11:22:43.771Z,6.55
2022-12-18T11:25:54.907Z,8.13
2022-12-18T11:29:19.219Z,8.27
2022-12-18T11:32:38.893Z,5.55
2022-12-18T11:35:51.096Z,8.07
2022-12-18T11:38:57.766Z,8.65
2022-12-18T11:42:11.718Z,5.70
2022-12-18T11:45:13.924Z,4.97
2022-12-18T11:48:57.125Z,5.55
2022-12-18T11:52:20.669Z,8.05
2022-12-18T11:55:49.531Z,5.60
2022-12-18T11:59:02.141Z,8.18
2022-12-18T12:02:31.977Z,10.20
2022-12-18T12:09:01.632Z,7.03
2022-12-18T12:12:25.074Z,6.70
2022-12-18T12:15:37.041Z,7.03
2022-12-18T12:18:47.906Z,6.95
2022-12-18T12:21:54.354Z,6.75
2022-12-18T12:25:18.732Z,7.57
2022-12-18T12:29:04.325Z,6.78
2022-12-18T12:32:21.220Z,7.28
2022-12-18T12:35:54.957Z,5.75
2022-12-18T12:39:00.944Z,7.00
2022-12-18T12:42:24.170Z,5.13
2022-12-18T12:45:52.026Z,8.00
2022-12-18T12:48:58.795Z,9.48
2022-12-18T12:52:13.655Z,7.85
2022-12-18T12:58:54.974Z,7.72
2022-12-18T13:02:21.035Z,6.72
2022-12-18T13:05:50.395Z,4.20
2022-12-18T13:08:56.997Z,4.70
2022-12-18T13:12:30.632Z,6.05
2022-12-18T13:13:43.747Z,7.45
2022-12-18T13:15:40.634Z,4.40
2022-12-18T13:18:52.931Z,3.53
2022-12-18T13:21:56.943Z,4.07
2022-12-18T13:24:58.816Z,5.38
2022-12-18T13:28:15.127Z,6.40
2022-12-18T13:31:32.220Z,4.22
2022-12-18T13:34:34.058Z,6.10
2022-12-18T13:37:52.147Z,4.88
2022-12-18T13:41:00.463Z,7.35
2022-12-18T13:44:41.631Z,7.05
2022-12-18T13:47:44.790Z,8.10
2022-12-18T13:51:03.139Z,6.60
2022-12-18T13:54:38.193Z,7.15
2022-12-18T13:57:41.863Z,9.60
2022-12-18T14:00:44.131Z,9.75
2022-12-18T14:03:47.881Z,7.32
2022-12-18T14:06:53.409Z,12.13
2022-12-18T14:10:12.067Z,10.02
2022-12-18T14:13:33.429Z,11.77
2022-12-18T14:16:35.611Z,13.02
2022-12-18T14:19:43.363Z,10.95
2022-12-18T14:22:48.053Z,15.85
2022-12-18T14:25:49.658Z,15.00
2022-12-18T14:28:51.385Z,13.95
2022-12-18T14:32:23.716Z,16.70
2022-12-18T14:35:25.334Z,13.45
2022-12-18T14:38:40.827Z,18.60
2022-12-18T14:41:42.727Z,16.67
2022-12-18T14:45:12.978Z,17.38
2022-12-18T14:48:37.438Z,16.75
2022-12-18T14:51:40.268Z,18.95
2022-12-18T14:54:47.975Z,14.65
2022-12-18T14:57:57.519Z,13.63
2022-12-18T15:00:59.769Z,13.45
2022-12-18T15:04:03.134Z,14.18
2022-12-18T15:07:23.441Z,14.73
2022-12-18T15:10:30.679Z,18.77
2022-12-18T15:13:32.892Z,13.95
2022-12-18T15:16:37.498Z,16.88
2022-12-18T15:19:41.658Z,16.90
2022-12-18T15:22:43.253Z,18.98
2022-12-18T15:25:45.744Z,16.10
2022-12-18T15:28:53.114Z,16.10
2022-12-18T15:32:21.102Z,21.70
2022-12-18T15:35:25.442Z,18.00
2022-12-18T15:38:29.250Z,19.27
2022-12-18T15:41:34.839Z,20.10
2022-12-18T15:44:37.915Z,18.88
2022-12-18T15:47:40.319Z,17.83
2022-12-18T15:50:41.953Z,18.80
2022-12-18T15:53:44.695Z,17.30
2022-12-18T15:57:05.066Z,20.05
2022-12-18T16:00:07.815Z,17.80
2022-12-18T16:03:10.662Z,20.88
2022-12-18T16:06:12.567Z,20.85
2022-12-18T16:09:14.254Z,19.75
2022-12-18T16:12:19.409Z,19.00
2022-12-18T16:15:24.711Z,17.02
2022-12-18T16:18:26.725Z,18.40
2022-12-18T16:21:33.784Z,20.05
2022-12-18T16:24:37.238Z,15.20
2022-12-18T16:27:39.046Z,18.70
2022-12-18T16:30:41.270Z,20.33
2022-12-18T16:33:43.854Z,19.85
2022-12-18T16:36:47.757Z,17.35
2022-12-18T16:39:49.414Z,18.02
2022-12-18T16:42:51.217Z,17.38
2022-12-18T16:45:57.843Z,18.85
2022-12-18T16:49:00.676Z,18.45
2022-12-18T16:52:03.206Z,14.65
2022-12-18T16:55:05.417Z,15.77
2022-12-18T16:58:07.421Z,13.30
2022-12-18T17:01:11.209Z,13.05
2022-12-18T17:04:13.260Z,10.07
2022-12-18T17:07:16.444Z,11.02
2022-12-18T17:10:18.061Z,8.60
2022-12-18T17:13:25.472Z,10.10
2022-12-18T17:16:27.572Z,8.32
2022-12-18T17:19:29.711Z,9.65
2022-12-18T17:22:31.561Z,9.75
2022-12-18T17:25:33.218Z,8.27
2022-12-18T17:28:35.124Z,8.45
2022-12-18T17:31:36.873Z,6.47
2022-12-18T17:34:38.669Z,8.30
2022-12-18T17:37:40.585Z,8.95
2022-12-18T17:40:46.229Z,7.63
2022-12-18T17:43:57.625Z,9.27
2022-12-18T17:50:00.953Z,8.57
2022-12-18T17:53:03.335Z,7.30
2022-12-18T17:56:07.173Z,8.82
2022-12-18T17:59:09.813Z,11.82
2022-12-18T18:02:12.081Z,10.73
2022-12-18T18:05:14.161Z,8.13
2022-12-18T18:08:19.982Z,8.15
2022-12-18T18:11:42.874Z,8.93
2022-12-18T18:14:45.066Z,9.52
2022-12-18T18:17:47.134Z,9.48
2022-12-18T18:20:48.946Z,9.25
2022-12-18T18:23:50.921Z,7.80
2022-12-18T18:26:56.511Z,8.43
2022-12-18T18:29:58.548Z,11.70
2022-12-18T18:33:00.250Z,10.68
2022-12-18T18:36:02.162Z,10.07
2022-12-18T18:39:04.528Z,13.77
2022-12-18T18:42:06.516Z,10.20
2022-12-18T18:45:08.703Z,12.25
2022-12-18T18:48:14.259Z,10.25
2022-12-18T18:51:21.216Z,10.20
2022-12-18T18:54:24.523Z,8.65
2022-12-18T18:57:30.266Z,11.20
2022-12-18T19:00:32.345Z,16.83
2022-12-18T19:03:35.863Z,10.98
2022-12-18T19:06:37.613Z,10.65
2022-12-18T19:09:40.613Z,9.38
2022-12-18T19:13:00.820Z,13.57
2022-12-18T19:16:10.609Z,10.23
2022-12-18T19:19:13.502Z,10.27
2022-12-18T19:22:16.751Z,12.35
2022-12-18T19:25:18.499Z,11.88
2022-12-18T19:28:25.821Z,11.30
2022-12-18T19:31:35.576Z,12.77
2022-12-18T19:34:40.839Z,10.63
2022-12-18T19:37:43.959Z,14.90
2022-12-18T19:40:45.871Z,13.82
2022-12-18T19:43:48.481Z,12.27
2022-12-18T19:46:51.640Z,12.43
2022-12-18T19:49:53.308Z,12.63
2022-12-18T19:52:54.990Z,12.93
2022-12-18T19:55:56.648Z,15.57
2022-12-18T19:58:58.419Z,13.15
2022-12-18T20:02:00.141Z,18.65
2022-12-18T20:05:08.041Z,12.25
2022-12-18T20:08:10.945Z,11.48
2022-12-18T20:11:13.298Z,14.00
2022-12-18T20:14:23.186Z,12.27
2022-12-18T20:17:25.318Z,12.80
2022-12-18T20:20:29.832Z,12.55
2022-12-18T20:23:34.512Z,15.98
2022-12-18T20:26:38.936Z,19.83
2022-12-18T20:29:41.025Z,13.93
2022-12-18T20:32:42.792Z,13.45
2022-12-18T20:35:44.597Z,11.48
2022-12-18T20:38:46.779Z,16.70
2022-12-18T20:41:51.018Z,11.80
2022-12-18T20:44:54.101Z,15.07
2022-12-18T20:47:59.480Z,17.25
2022-12-18T20:51:06.045Z,12.68
2022-12-18T20:54:11.607Z,17.42
2022-12-18T20:57:14.176Z,13.20
2022-12-18T21:00:20.081Z,14.38
2022-12-18T21:03:23.092Z,15.63
2022-12-18T21:06:25.176Z,15.90
2022-12-18T21:09:26.841Z,14.93
2022-12-18T21:12:42.826Z,15.95
2022-12-18T21:15:54.167Z,16.98
2022-12-18T21:18:55.938Z,16.02
2022-12-18T21:21:58.291Z,13.68
2022-12-18T21:25:00.330Z,14.25
2022-12-18T21:28:02.248Z,14.85
2022-12-18T21:31:04.351Z,15.15
2022-12-18T21:34:07.266Z,14.82
2022-12-18T21:37:08.865Z,18.83
2022-12-18T21:40:11.429Z,18.58
2022-12-18T21:43:39.476Z,15.02
2022-12-18T21:46:48.948Z,15.32
2022-12-18T21:49:54.768Z,15.35
2022-12-18T21:52:56.503Z,15.15
2022-12-18T21:55:59.355Z,14.15
2022-12-18T21:59:01.019Z,14.02
2022-12-18T22:02:10.174Z,15.57
2022-12-18T22:05:11.946Z,14.70
2022-12-18T22:08:13.804Z,16.30
2022-12-18T22:11:15.696Z,18.58
2022-12-18T22:14:20.372Z,17.58
2022-12-18T22:17:22.042Z,17.27
2022-12-18T22:20:24.524Z,20.40
2022-12-18T22:23:28.653Z,17.80
2022-12-18T22:26:39.313Z,17.40
2022-12-18T22:30:00.351Z,13.57
2022-12-18T22:33:02.411Z,18.30
2022-12-18T22:36:10.383Z,15.38
2022-12-18T22:39:23.801Z,20.02
2022-12-18T22:42:25.757Z,16.25
2022-12-18T22:45:27.924Z,15.43
2022-12-18T22:48:30.364Z,15.95
2022-12-18T22:51:32.392Z,14.18
2022-12-18T22:54:34.157Z,15.23
2022-12-18T22:57:35.808Z,16.55
2022-12-18T23:00:41.556Z,15.05
2022-12-18T23:03:43.619Z,19.58
2022-12-18T23:06:45.920Z,15.98
2022-12-18T23:09:49.372Z,17.38
2022-12-18T23:12:52.435Z,16.85
2022-12-18T23:15:55.493Z,18.02
2022-12-18T23:18:57.345Z,18.67
2022-12-18T23:21:59.213Z,15.43
2022-12-18T23:25:01.233Z,17.40
2022-12-18T23:28:03.119Z,17.50
2022-12-18T23:31:20.703Z,14.00
2022-12-18T23:34:22.544Z,15.38
2022-12-18T23:37:57.058Z,18.77
2022-12-18T23:40:45.859Z,14.00
2022-12-18T23:43:50.199Z,16.00
2022-12-18T23:46:51.983Z,16.00
2022-12-18T23:49:53.802Z,15.85
2022-12-18T23:52:56.012Z,16.60
2022-12-18T23:56:02.507Z,15.40
2022-12-18T23:59:05.646Z,18.15
